الصفحة الرئيسية
METAR-TAF:

METAR-TAF

مطار :

لوبلين, بولندا

دائرة عرض: 51-13-55N, خط طول: 22-41-25E, ارتفاع: 203 متر

مراقبة الطقس الحالي

تاريخ ووقت الإصدار 17 دقيقة قبل الساعة 01:00UTC
ريح 6 عقدة من الشمال الغربي
درجة الحرارة 19°درجة مئوية
الرطوبة 83%
ضغط 1020 hPa
الرؤية 10 كم أو أكثر
غيوم قليلة على ارتفاع 6500 قدم, مزنة ركامية.

METAR: EPLB 180100Z 31006KT 9999 FEW065CB 19/16 Q1020

زمن: 03:17 (01:17 UTC)

توقعات

تاريخ ووقت الإصدار 1ساعة و 47 دقيقة قبل الساعة 23:30UTC
التوقعات صالحة من18 الساعة 00 UTC إلى 18 الساعة 24 UTC
ريح 8 عقدة من الغرب/الشمال الغربي
الرؤية 10 كم أو أكثر
الغيوم لا تقل 1500 م ولا وجود لمزنة ركامية السحاب الأسود
مؤقت
من 18 الساعة 00 UTC إلى 18 الساعة 03 UTC
غيوم متفرقة على ارتفاع 4000 قدم, مزنة ركامية.
نظرية الاحتمالات 40% :
مؤقت
من 18 الساعة 00 UTC إلى 18 الساعة 02 UTC
الرؤية: 4000 متر
غيوم مفككة على ارتفاع 3000 قدم, مزنة ركامية.
عاصفة رعدية, مطر,

TAF: EPLB 172330Z 1800/1824 30008KT CAVOK TEMPO 1800/1803 SCT040CB PROB40 TEMPO 1800/1802 4000 TSRA BKN030CB

أرصاد الطقس والتوقعات من أكثر من 4000 مطار (تقارير الطقس للمطار METAR والتنبؤ بالطقس بالمطارTAF).

المحطات المتاحة هي النقط الصفراء والحمراء على الخريطة.

حرك المؤشر فوق النقطة لمعرفة اسم المحطة.

ثم انقر لمعرفة أرصاد وتوقعات الطقس.

لتغيير الخارطة: اضغط على الأزرار الخضراء مع رمز الصليب الأسود للتكبير. على الزر الأخضر مع شرطة للتصغير، أو على الأسهم الخضراء للخرائط المجاورة.


METAR-TAF: